Overview Statistics Trail Chart Weather Telemetry Raw packets
 

This is the latest recevied weather packets stored in our database for station/object YO3FVR-WX. If no packets are shown the sender has not sent any weather packets the latest 10 day(s).

<< 55 56 57 58 59 60 >>
Time Temp. Humidity Pressure Rain* Wind** Luminosity Snow
1787754725 28.33° C 56% 1010.7 hPa 0 mm - - -
1787754095 28.33° C 55% 1010.7 hPa 0 mm - - -
1787753495 28.33° C 56% 1010.6 hPa 0 mm - - -
1787752895 28.33° C 56% 1010.8 hPa 0 mm - - -
1787752265 28.33° C 56% 1010.6 hPa 0 mm - - -
1787751635 28.33° C 55% 1010.7 hPa 0 mm - - -
1787751035 28.89° C 55% 1010.7 hPa 0 mm - - -
1787750405 29.44° C 53% 1010.8 hPa 0 mm - - -
1787749775 30.56° C 52% 1010.8 hPa 0 mm - - -
1787749145 32.22° C 49% 1010.9 hPa 0 mm - - -
1787748515 31.11° C 55% 1010.8 hPa 0 mm - - -
1787747915 27.78° C 59% 1010.9 hPa 0 mm - - -
1787747286 27.22° C 60% 1011 hPa 0 mm - - -
1787746655 27.22° C 61% 1011 hPa 0 mm - - -
1787746025 26.67° C 61% 1011.1 hPa 0 mm - - -
1787745425 26.67° C 62% 1011.1 hPa 0 mm - - -
1787744796 26.67° C 62% 1011.2 hPa 0 mm - - -
1787744195 26.11° C 63% 1011.1 hPa 0 mm - - -
1787743567 26.11° C 64% 1011.1 hPa 0 mm - - -
1787742965 25.56° C 65% 1011.3 hPa 0 mm - - -
1787742335 25.56° C 66% 1011.4 hPa 0 mm - - -
1787741735 25° C 67% 1011.5 hPa 0 mm - - -
1787741135 25° C 69% 1011.4 hPa 0 mm - - -
1787740505 24.44° C 69% 1011.4 hPa 0 mm - - -
1787739906 24.44° C 70% 1011.4 hPa 0 mm - - -

* Rain latest hour (hover to see other rain measurements)
** Current wind speed in m/s (hover to see current wind gust speed)